createdAt,value
2023-02-13T00:01:17.526Z,53.18
2023-02-13T00:03:45.350Z,53.02
2023-02-13T00:06:23.245Z,53.12
2023-02-13T00:08:51.372Z,53.08
2023-02-13T00:11:20.606Z,53.21
2023-02-13T00:13:48.440Z,52.99
2023-02-13T00:16:16.305Z,53.53
2023-02-13T00:18:44.219Z,53.09
2023-02-13T00:21:13.780Z,53.00
2023-02-13T00:23:41.541Z,53.12
2023-02-13T00:26:14.068Z,53.21
2023-02-13T00:28:45.895Z,53.22
2023-02-13T00:31:19.083Z,53.06
2023-02-13T00:33:47.846Z,52.95
2023-02-13T00:36:22.074Z,53.40
2023-02-13T00:38:50.431Z,53.12
2023-02-13T00:41:18.283Z,53.34
2023-02-13T00:43:47.450Z,53.31
2023-02-13T00:46:17.243Z,53.20
2023-02-13T00:48:45.517Z,53.42
2023-02-13T00:51:13.408Z,53.00
2023-02-13T00:53:41.427Z,53.11
2023-02-13T00:56:09.767Z,53.07
2023-02-13T00:58:38.897Z,53.14
2023-02-13T01:01:06.833Z,53.31
2023-02-13T01:03:35.675Z,53.17
2023-02-13T01:06:03.746Z,53.45
2023-02-13T01:08:32.931Z,53.03
2023-02-13T01:11:01.064Z,53.18
2023-02-13T01:13:29.628Z,53.25
2023-02-13T01:15:57.558Z,53.57
2023-02-13T01:18:26.921Z,53.65
2023-02-13T01:21:08.320Z,53.35
2023-02-13T01:23:38.566Z,53.64
2023-02-13T01:26:10.803Z,53.39
2023-02-13T01:28:38.805Z,53.91
2023-02-13T01:31:06.697Z,53.50
2023-02-13T01:33:35.974Z,53.76
2023-02-13T01:36:14.129Z,53.44
2023-02-13T01:38:42.240Z,53.69
2023-02-13T01:41:10.351Z,53.86
2023-02-13T01:43:52.328Z,53.96
2023-02-13T01:46:29.572Z,53.89
2023-02-13T01:49:23.138Z,53.76
2023-02-13T01:51:55.908Z,54.19
2023-02-13T01:54:33.000Z,53.74
2023-02-13T01:57:08.951Z,54.22
2023-02-13T01:59:50.114Z,54.18
2023-02-13T02:02:19.028Z,54.29
2023-02-13T02:04:48.338Z,54.27
2023-02-13T02:07:26.480Z,53.98
2023-02-13T02:10:00.305Z,54.27
2023-02-13T02:12:32.254Z,54.33
2023-02-13T02:15:04.047Z,54.67
2023-02-13T02:17:33.793Z,54.65
2023-02-13T02:20:19.354Z,54.81
2023-02-13T02:23:03.453Z,54.58
2023-02-13T02:26:11.245Z,54.72
2023-02-13T02:29:23.297Z,54.92
2023-02-13T02:32:37.938Z,54.66
2023-02-13T02:35:27.779Z,54.51
2023-02-13T02:38:37.312Z,54.47
2023-02-13T02:41:42.217Z,54.36
2023-02-13T02:44:32.303Z,54.55
2023-02-13T02:47:52.937Z,54.75
2023-02-13T02:50:50.403Z,54.69
2023-02-13T02:54:03.470Z,54.74
2023-02-13T02:56:46.698Z,54.72
2023-02-13T02:59:55.224Z,54.65
2023-02-13T03:02:42.673Z,54.89
2023-02-13T03:05:49.142Z,54.48
2023-02-13T03:08:37.883Z,54.79
2023-02-13T03:11:25.423Z,54.92
2023-02-13T03:13:54.511Z,54.55
2023-02-13T03:16:44.199Z,54.78
2023-02-13T03:19:56.791Z,54.38
2023-02-13T03:22:52.623Z,54.38
2023-02-13T03:25:43.517Z,54.57
2023-02-13T03:28:49.077Z,54.47
2023-02-13T03:31:49.772Z,54.67
2023-02-13T03:34:23.608Z,54.54
2023-02-13T03:37:22.412Z,54.69
2023-02-13T03:40:08.168Z,54.75
2023-02-13T03:42:42.494Z,54.60
2023-02-13T03:45:51.463Z,54.32
2023-02-13T03:48:54.516Z,54.91
2023-02-13T03:51:40.731Z,54.80
2023-02-13T03:54:42.531Z,54.69
2023-02-13T03:57:33.850Z,54.63
2023-02-13T04:00:06.493Z,54.59
2023-02-13T04:02:54.585Z,54.45
2023-02-13T04:05:25.444Z,55.25
2023-02-13T04:07:53.884Z,54.63
2023-02-13T04:10:24.647Z,54.91
2023-02-13T04:13:14.440Z,54.46
2023-02-13T04:15:55.563Z,54.44
2023-02-13T04:18:31.044Z,54.48
2023-02-13T04:21:06.754Z,54.60
2023-02-13T04:23:36.839Z,54.56
2023-02-13T04:26:11.965Z,54.88
2023-02-13T04:28:39.806Z,54.55
2023-02-13T04:31:07.786Z,54.97
2023-02-13T04:33:35.681Z,54.75
2023-02-13T04:36:03.856Z,55.10
2023-02-13T04:38:31.754Z,54.92
2023-02-13T04:40:59.851Z,54.62
2023-02-13T04:43:27.945Z,54.95
2023-02-13T04:45:55.967Z,55.05
2023-02-13T04:48:23.879Z,54.87
2023-02-13T04:50:51.705Z,55.19
2023-02-13T04:53:19.597Z,54.94
2023-02-13T04:55:47.378Z,54.83
2023-02-13T04:58:15.164Z,54.45
2023-02-13T05:00:43.178Z,54.65
2023-02-13T05:03:13.614Z,54.66
2023-02-13T05:05:41.524Z,54.70
2023-02-13T05:08:09.751Z,54.70
2023-02-13T05:10:37.977Z,55.02
2023-02-13T05:13:05.913Z,55.13
2023-02-13T05:15:33.889Z,55.07
2023-02-13T05:18:01.873Z,55.27
2023-02-13T05:20:29.716Z,55.35
2023-02-13T05:23:16.615Z,55.20
2023-02-13T05:25:44.441Z,55.37
2023-02-13T05:28:31.297Z,55.11
2023-02-13T05:30:59.803Z,54.70
2023-02-13T05:33:27.817Z,54.92
2023-02-13T05:35:55.507Z,55.13
2023-02-13T05:38:23.440Z,55.48
2023-02-13T05:40:51.383Z,55.19
2023-02-13T05:43:20.405Z,54.98
2023-02-13T05:45:48.408Z,55.05
2023-02-13T05:48:16.180Z,54.71
2023-02-13T05:50:46.138Z,55.16
2023-02-13T05:53:14.035Z,55.27
2023-02-13T05:55:41.833Z,55.58
2023-02-13T05:58:09.608Z,54.89
2023-02-13T06:00:37.272Z,55.10
2023-02-13T06:03:05.036Z,54.92
2023-02-13T06:05:32.865Z,55.14
2023-02-13T06:08:00.819Z,55.25
2023-02-13T06:10:28.526Z,55.57
2023-02-13T06:12:56.286Z,55.13
2023-02-13T06:15:24.068Z,55.58
2023-02-13T06:17:51.938Z,55.25
2023-02-13T06:20:19.973Z,55.47
2023-02-13T06:22:52.222Z,55.51
2023-02-13T06:25:20.845Z,55.73
2023-02-13T06:27:50.281Z,55.44
2023-02-13T06:30:18.804Z,55.29
2023-02-13T06:32:48.116Z,55.69
2023-02-13T06:35:16.804Z,55.37
2023-02-13T06:37:45.466Z,55.94
2023-02-13T06:40:14.924Z,55.69
2023-02-13T06:42:44.052Z,55.56
2023-02-13T06:45:13.208Z,55.72
2023-02-13T06:47:43.653Z,55.77
2023-02-13T06:50:14.397Z,55.30
2023-02-13T06:52:52.629Z,55.44
2023-02-13T06:55:20.968Z,55.71
2023-02-13T06:57:50.443Z,55.42
2023-02-13T07:00:19.443Z,55.06
2023-02-13T07:02:47.879Z,55.23
2023-02-13T07:05:16.002Z,55.63
2023-02-13T07:07:44.097Z,55.80
2023-02-13T07:10:14.966Z,55.11
2023-02-13T07:12:45.673Z,55.37
2023-02-13T07:15:15.207Z,55.47
2023-02-13T07:17:43.044Z,55.86
2023-02-13T07:20:11.382Z,55.48
2023-02-13T07:22:39.162Z,55.40
2023-02-13T07:25:07.381Z,55.62
2023-02-13T07:27:35.131Z,56.02
2023-02-13T07:30:03.651Z,55.46
2023-02-13T07:32:31.907Z,55.42
2023-02-13T07:35:02.436Z,55.53
2023-02-13T07:37:33.486Z,55.38
2023-02-13T07:40:01.381Z,55.53
2023-02-13T07:42:35.501Z,55.03
2023-02-13T07:45:08.388Z,55.72
2023-02-13T07:47:36.135Z,55.72
2023-02-13T07:50:06.109Z,55.25
2023-02-13T07:52:36.167Z,55.79
2023-02-13T07:55:06.443Z,55.38
2023-02-13T07:57:34.567Z,55.90
2023-02-13T08:00:06.198Z,55.86
2023-02-13T08:02:39.713Z,55.32
2023-02-13T08:05:11.167Z,55.82
2023-02-13T08:07:39.043Z,55.58
2023-02-13T08:10:27.477Z,55.54
2023-02-13T08:12:55.538Z,55.57
2023-02-13T08:15:23.937Z,55.60
2023-02-13T08:17:53.848Z,55.83
2023-02-13T08:20:21.941Z,55.76
2023-02-13T08:22:52.397Z,56.26
2023-02-13T08:25:20.285Z,55.84
2023-02-13T08:27:48.337Z,55.77
2023-02-13T08:30:16.539Z,56.08
2023-02-13T08:32:53.865Z,56.23
2023-02-13T08:35:26.710Z,55.95
2023-02-13T08:37:55.862Z,55.89
2023-02-13T08:40:25.462Z,55.94
2023-02-13T08:43:01.470Z,55.75
2023-02-13T08:45:29.582Z,56.07
2023-02-13T08:47:59.023Z,55.79
2023-02-13T08:50:28.171Z,55.67
2023-02-13T08:53:16.176Z,55.70
2023-02-13T08:55:51.173Z,55.95
2023-02-13T08:58:19.026Z,55.94
2023-02-13T09:00:47.161Z,55.32
2023-02-13T09:03:15.842Z,55.67
2023-02-13T09:05:45.362Z,55.95
2023-02-13T09:08:13.817Z,55.45
2023-02-13T09:10:45.902Z,55.77
2023-02-13T09:13:13.623Z,55.60
2023-02-13T09:15:43.026Z,55.38
2023-02-13T09:18:11.008Z,55.36
2023-02-13T09:20:38.862Z,55.65
2023-02-13T09:23:06.503Z,55.43
2023-02-13T09:25:34.272Z,55.17
2023-02-13T09:28:02.213Z,55.38
2023-02-13T09:30:30.351Z,55.39
2023-02-13T09:32:58.170Z,55.15
2023-02-13T09:35:26.004Z,54.95
2023-02-13T09:37:53.691Z,55.21
2023-02-13T09:40:37.502Z,55.20
2023-02-13T09:43:29.505Z,54.79
2023-02-13T09:46:14.694Z,54.92
2023-02-13T09:48:46.267Z,55.13
2023-02-13T09:51:17.222Z,55.03
2023-02-13T09:54:01.772Z,54.78
2023-02-13T09:56:41.843Z,54.73
2023-02-13T09:59:44.517Z,54.46
2023-02-13T10:02:56.146Z,54.26
2023-02-13T10:05:58.624Z,54.35
2023-02-13T10:08:49.498Z,54.16
2023-02-13T10:11:54.022Z,54.62
2023-02-13T10:14:52.301Z,54.35
2023-02-13T10:17:45.199Z,54.07
2023-02-13T10:20:24.906Z,54.05
2023-02-13T10:23:32.678Z,54.21
2023-02-13T10:26:20.214Z,54.24
2023-02-13T10:29:21.784Z,54.00
2023-02-13T10:31:52.505Z,54.07
2023-02-13T10:34:25.297Z,53.76
2023-02-13T10:36:53.357Z,53.71
2023-02-13T10:39:30.336Z,53.61
2023-02-13T10:42:44.921Z,53.32
2023-02-13T10:45:46.900Z,53.46
2023-02-13T10:48:34.425Z,53.42
2023-02-13T10:51:35.932Z,53.25
2023-02-13T10:54:32.495Z,53.06
2023-02-13T10:57:14.451Z,53.44
2023-02-13T11:00:03.459Z,53.23
2023-02-13T11:02:34.684Z,53.29
2023-02-13T11:05:18.145Z,52.96
2023-02-13T11:07:47.586Z,53.02
2023-02-13T11:10:20.657Z,52.94
2023-02-13T11:12:50.174Z,52.70
2023-02-13T11:15:28.822Z,52.49
2023-02-13T11:18:03.462Z,52.89
2023-02-13T11:20:44.467Z,52.60
2023-02-13T11:23:30.697Z,52.38
2023-02-13T11:26:10.933Z,52.34
2023-02-13T11:28:56.830Z,52.48
2023-02-13T11:31:37.813Z,52.27
2023-02-13T11:34:27.278Z,52.05
2023-02-13T11:37:22.402Z,51.99
2023-02-13T11:39:54.934Z,52.26
2023-02-13T11:42:37.234Z,51.94
2023-02-13T11:45:23.812Z,52.06
2023-02-13T11:47:54.206Z,52.10
2023-02-13T11:50:35.728Z,51.67
2023-02-13T11:53:25.990Z,51.92
2023-02-13T11:56:15.296Z,52.00
2023-02-13T11:58:43.603Z,51.83
2023-02-13T12:01:20.280Z,51.79
2023-02-13T12:04:16.179Z,51.45
2023-02-13T12:07:00.959Z,51.63
2023-02-13T12:09:30.633Z,51.75
2023-02-13T12:12:04.179Z,51.38
2023-02-13T12:14:45.090Z,51.47
2023-02-13T12:17:31.797Z,51.31
2023-02-13T12:20:01.382Z,51.45
2023-02-13T12:22:38.635Z,51.29
2023-02-13T12:25:33.890Z,51.18
2023-02-13T12:28:33.202Z,51.21
2023-02-13T12:31:20.204Z,51.09
2023-02-13T12:34:57.393Z,50.95
2023-02-13T12:37:55.367Z,51.13
2023-02-13T12:40:47.917Z,51.04
2023-02-13T12:43:46.533Z,50.62
2023-02-13T12:46:41.303Z,50.79
2023-02-13T12:49:46.581Z,50.45
2023-02-13T12:52:33.995Z,50.53
2023-02-13T12:55:13.523Z,50.90
2023-02-13T12:58:17.366Z,50.31
2023-02-13T13:01:30.240Z,50.35
2023-02-13T13:04:40.379Z,50.26
2023-02-13T13:07:25.966Z,50.14
2023-02-13T13:10:25.361Z,49.94
2023-02-13T13:13:27.836Z,49.91
2023-02-13T13:16:32.724Z,49.84
2023-02-13T13:19:12.500Z,49.84
2023-02-13T13:21:46.380Z,49.73
2023-02-13T13:24:49.280Z,49.52
2023-02-13T13:27:37.844Z,49.58
2023-02-13T13:30:16.083Z,49.50
2023-02-13T13:32:45.961Z,49.69
2023-02-13T13:35:19.972Z,49.43
2023-02-13T13:38:18.343Z,49.15
2023-02-13T13:41:00.317Z,49.31
2023-02-13T13:43:40.669Z,49.19
2023-02-13T13:46:45.884Z,49.37
2023-02-13T13:49:53.582Z,49.16
2023-02-13T13:52:32.948Z,49.27
2023-02-13T13:55:03.089Z,49.31
2023-02-13T13:57:40.267Z,49.10
2023-02-13T14:00:14.032Z,49.10
2023-02-13T14:02:45.222Z,48.99
2023-02-13T14:05:27.446Z,48.93
2023-02-13T14:07:58.764Z,48.96
2023-02-13T14:10:26.736Z,48.98
2023-02-13T14:12:58.395Z,48.81
2023-02-13T14:15:38.332Z,48.79
2023-02-13T14:18:14.583Z,48.62
2023-02-13T14:20:50.432Z,48.93
2023-02-13T14:23:50.556Z,48.59
2023-02-13T14:26:18.359Z,48.87
2023-02-13T14:28:49.178Z,48.45
2023-02-13T14:31:39.237Z,48.55
2023-02-13T14:34:16.966Z,48.45
2023-02-13T14:37:07.172Z,48.16
2023-02-13T14:39:35.934Z,48.50
2023-02-13T14:42:23.288Z,48.43
2023-02-13T14:44:56.413Z,48.36
2023-02-13T14:47:42.628Z,48.30
2023-02-13T14:50:30.594Z,48.35
2023-02-13T14:53:02.851Z,48.29
2023-02-13T14:55:48.212Z,48.27
2023-02-13T14:58:43.210Z,48.03
2023-02-13T15:01:35.739Z,48.07
2023-02-13T15:04:28.165Z,48.15
2023-02-13T15:07:00.193Z,48.11
2023-02-13T15:09:41.326Z,47.93
2023-02-13T15:12:36.259Z,48.05
2023-02-13T15:15:32.471Z,48.07
2023-02-13T15:18:13.444Z,48.03
2023-02-13T15:20:43.125Z,47.99
2023-02-13T15:23:26.679Z,47.84
2023-02-13T15:26:04.447Z,47.80
2023-02-13T15:28:34.274Z,48.00
2023-02-13T15:31:21.699Z,48.00
2023-02-13T15:33:51.435Z,48.03
2023-02-13T15:36:25.365Z,47.85
2023-02-13T15:39:01.003Z,47.96
2023-02-13T15:41:45.244Z,47.75
2023-02-13T15:44:36.981Z,47.71
2023-02-13T15:47:17.382Z,47.86
2023-02-13T15:49:48.763Z,47.85
2023-02-13T15:52:38.380Z,48.34
2023-02-13T15:55:06.517Z,48.18
2023-02-13T15:57:35.441Z,48.15
2023-02-13T16:00:04.254Z,47.97
2023-02-13T16:02:47.838Z,47.73
2023-02-13T16:05:26.488Z,47.76
2023-02-13T16:08:31.016Z,47.69
2023-02-13T16:11:27.034Z,47.81
2023-02-13T16:14:21.229Z,47.70
2023-02-13T16:17:03.097Z,47.82
2023-02-13T16:19:41.895Z,47.88
2023-02-13T16:22:24.629Z,47.81
2023-02-13T16:24:58.185Z,47.86
2023-02-13T16:27:28.287Z,47.79
2023-02-13T16:30:07.790Z,47.84
2023-02-13T16:32:41.393Z,47.96
2023-02-13T16:35:28.969Z,47.68
2023-02-13T16:38:01.725Z,47.83
2023-02-13T16:40:43.058Z,47.79
2023-02-13T16:43:35.581Z,47.74
2023-02-13T16:46:14.985Z,47.75
2023-02-13T16:48:56.481Z,47.67
2023-02-13T16:51:30.379Z,47.59
2023-02-13T16:54:28.492Z,47.73
2023-02-13T16:57:14.739Z,47.65
2023-02-13T16:59:48.647Z,47.71
2023-02-13T17:02:23.860Z,47.79
2023-02-13T17:05:08.386Z,47.78
2023-02-13T17:07:48.501Z,47.80
2023-02-13T17:10:31.064Z,47.61
2023-02-13T17:13:02.995Z,47.85
2023-02-13T17:15:32.693Z,47.89
2023-02-13T17:18:00.751Z,47.79
2023-02-13T17:20:32.400Z,47.81
2023-02-13T17:23:04.356Z,47.77
2023-02-13T17:25:36.052Z,47.71
2023-02-13T17:28:18.847Z,47.79
2023-02-13T17:30:48.498Z,47.88
2023-02-13T17:33:35.443Z,47.63
2023-02-13T17:36:03.359Z,48.09
2023-02-13T17:38:31.271Z,47.94
2023-02-13T17:41:00.595Z,47.98
2023-02-13T17:43:29.957Z,48.19
2023-02-13T17:46:01.221Z,48.21
2023-02-13T17:48:29.402Z,47.96
2023-02-13T17:50:57.674Z,48.05
2023-02-13T17:53:29.975Z,47.93
2023-02-13T17:55:58.298Z,47.84
2023-02-13T17:58:29.398Z,47.81
2023-02-13T18:00:57.906Z,48.15
2023-02-13T18:03:25.927Z,48.39
2023-02-13T18:05:53.628Z,48.11
2023-02-13T18:08:21.388Z,48.24
2023-02-13T18:10:49.478Z,48.04
2023-02-13T18:13:17.534Z,48.35
2023-02-13T18:15:45.494Z,48.48
2023-02-13T18:18:16.235Z,48.23
2023-02-13T18:20:45.053Z,48.24
2023-02-13T18:23:13.901Z,48.29
2023-02-13T18:25:41.787Z,48.61
2023-02-13T18:28:09.564Z,48.32
2023-02-13T18:30:42.988Z,48.42
2023-02-13T18:33:11.062Z,48.49
2023-02-13T18:35:40.978Z,48.62
2023-02-13T18:38:08.769Z,48.61
2023-02-13T18:40:36.761Z,48.61
2023-02-13T18:43:04.676Z,48.57
2023-02-13T18:45:32.560Z,48.57
2023-02-13T18:48:02.356Z,48.56
2023-02-13T18:50:30.098Z,48.76
2023-02-13T18:52:58.003Z,48.70
2023-02-13T18:55:28.409Z,48.59
2023-02-13T18:57:56.413Z,48.91
2023-02-13T19:00:26.866Z,48.59
2023-02-13T19:02:55.530Z,48.74
2023-02-13T19:05:23.537Z,48.48
2023-02-13T19:07:54.157Z,48.80
2023-02-13T19:10:25.190Z,48.72
2023-02-13T19:12:53.343Z,48.91
2023-02-13T19:15:21.338Z,48.83
2023-02-13T19:17:49.180Z,48.96
2023-02-13T19:20:17.178Z,49.14
2023-02-13T19:22:45.023Z,49.29
2023-02-13T19:25:12.937Z,49.33
2023-02-13T19:27:40.712Z,49.25
2023-02-13T19:30:10.581Z,49.41
2023-02-13T19:32:38.486Z,49.18
2023-02-13T19:35:08.901Z,49.50
2023-02-13T19:37:43.750Z,49.68
2023-02-13T19:40:14.015Z,49.59
2023-02-13T19:42:42.329Z,49.47
2023-02-13T19:45:10.657Z,49.74
2023-02-13T19:47:38.399Z,49.71
2023-02-13T19:50:07.460Z,49.61
2023-02-13T19:52:35.400Z,49.58
2023-02-13T19:55:03.434Z,49.68
2023-02-13T19:57:33.753Z,49.73
2023-02-13T20:00:06.032Z,49.71
2023-02-13T20:02:39.742Z,49.60
2023-02-13T20:05:08.828Z,49.72
2023-02-13T20:07:36.564Z,49.52
2023-02-13T20:10:06.437Z,49.59
2023-02-13T20:12:34.154Z,49.56
2023-02-13T20:15:02.598Z,49.61
2023-02-13T20:17:30.435Z,49.70
2023-02-13T20:19:58.953Z,49.47
2023-02-13T20:22:26.712Z,49.71
2023-02-13T20:24:54.420Z,49.64
2023-02-13T20:27:22.276Z,49.64
2023-02-13T20:29:51.389Z,49.50
2023-02-13T20:32:19.435Z,49.79
2023-02-13T20:34:59.462Z,49.64
2023-02-13T20:37:27.906Z,49.58
2023-02-13T20:39:55.795Z,49.62
2023-02-13T20:42:24.275Z,49.79
2023-02-13T20:44:52.235Z,49.69
2023-02-13T20:47:20.243Z,49.70
2023-02-13T20:49:48.382Z,49.45
2023-02-13T20:52:16.281Z,49.75
2023-02-13T20:54:44.108Z,49.62
2023-02-13T20:57:15.703Z,49.72
2023-02-13T20:59:44.930Z,50.01
2023-02-13T21:02:13.158Z,49.84
2023-02-13T21:04:41.033Z,49.87
2023-02-13T21:07:09.367Z,50.01
2023-02-13T21:09:37.820Z,49.80
2023-02-13T21:12:05.947Z,49.88
2023-02-13T21:14:33.921Z,50.01
2023-02-13T21:17:01.961Z,49.91
2023-02-13T21:19:31.334Z,49.87
2023-02-13T21:22:11.926Z,49.74
2023-02-13T21:24:42.318Z,49.79
2023-02-13T21:27:11.100Z,49.69
2023-02-13T21:29:39.052Z,49.74
2023-02-13T21:32:07.023Z,49.71
2023-02-13T21:34:35.213Z,49.66
2023-02-13T21:37:03.340Z,49.73
2023-02-13T21:39:31.225Z,49.27
2023-02-13T21:41:59.063Z,49.40
2023-02-13T21:44:27.081Z,49.38
2023-02-13T21:46:54.951Z,49.30
2023-02-13T21:49:25.005Z,49.27
2023-02-13T21:51:52.989Z,49.09
2023-02-13T21:54:20.791Z,48.90
2023-02-13T21:56:48.719Z,49.06
2023-02-13T21:59:17.701Z,48.69
2023-02-13T22:01:50.212Z,49.01
2023-02-13T22:04:18.706Z,49.00
2023-02-13T22:06:52.640Z,48.78
2023-02-13T22:09:21.873Z,48.82
2023-02-13T22:11:51.796Z,49.19
2023-02-13T22:14:19.882Z,49.08
2023-02-13T22:16:51.646Z,49.27
2023-02-13T22:19:21.202Z,48.99
2023-02-13T22:21:49.475Z,49.11
2023-02-13T22:24:17.347Z,49.19
2023-02-13T22:26:45.406Z,49.21
2023-02-13T22:29:17.722Z,49.21
2023-02-13T22:31:46.630Z,49.37
2023-02-13T22:34:15.570Z,49.03
2023-02-13T22:36:43.346Z,49.46
2023-02-13T22:39:12.078Z,48.98
2023-02-13T22:41:40.988Z,49.30
2023-02-13T22:44:08.844Z,49.02
2023-02-13T22:46:36.642Z,48.76
2023-02-13T22:49:04.605Z,48.97
2023-02-13T22:51:35.370Z,48.94
2023-02-13T22:54:04.453Z,49.36
2023-02-13T22:56:32.882Z,48.91
2023-02-13T22:59:01.074Z,49.12
2023-02-13T23:01:29.651Z,48.72
2023-02-13T23:04:00.967Z,48.95
2023-02-13T23:06:29.067Z,48.99
2023-02-13T23:08:57.506Z,48.92
2023-02-13T23:11:46.344Z,48.52
2023-02-13T23:14:15.076Z,48.60
2023-02-13T23:17:01.634Z,48.50
2023-02-13T23:19:30.532Z,48.61
2023-02-13T23:22:00.368Z,48.28
2023-02-13T23:24:29.941Z,48.71
2023-02-13T23:26:59.591Z,48.21
2023-02-13T23:29:27.583Z,48.37
2023-02-13T23:31:56.065Z,48.44
2023-02-13T23:34:24.290Z,48.62
2023-02-13T23:36:51.998Z,48.53
2023-02-13T23:39:20.374Z,48.08
2023-02-13T23:41:48.140Z,48.52
2023-02-13T23:44:15.807Z,48.39
2023-02-13T23:46:43.583Z,48.22
2023-02-13T23:49:11.446Z,48.42
2023-02-13T23:51:39.210Z,48.13
2023-02-13T23:54:07.190Z,48.13
2023-02-13T23:56:35.127Z,47.92
2023-02-13T23:59:02.969Z,48.18
